sensor_id;sensor_type;location;lat;lon;timestamp;pressure;altitude;pressure_sealevel;temperature;humidity
17764;BME280;22245;52.832;13.816;2022-11-09T00:03:01;100848.69;;;13.29;62.50
17764;BME280;22245;52.832;13.816;2022-11-09T00:06:25;100852.19;;;13.29;62.37
17764;BME280;22245;52.832;13.816;2022-11-09T00:09:47;100859.38;;;13.29;62.68
17764;BME280;22245;52.832;13.816;2022-11-09T00:13:09;100863.19;;;13.26;62.96
17764;BME280;22245;52.832;13.816;2022-11-09T00:16:30;100864.03;;;13.27;62.90
17764;BME280;22245;52.832;13.816;2022-11-09T00:19:52;100857.84;;;13.26;62.63
17764;BME280;22245;52.832;13.816;2022-11-09T00:23:15;100874.75;;;13.27;62.28
17764;BME280;22245;52.832;13.816;2022-11-09T00:26:38;100876.44;;;13.28;62.39
17764;BME280;22245;52.832;13.816;2022-11-09T00:30:00;100863.88;;;13.28;62.71
17764;BME280;22245;52.832;13.816;2022-11-09T00:33:22;100855.03;;;13.28;62.11
17764;BME280;22245;52.832;13.816;2022-11-09T00:36:44;100857.97;;;13.25;62.42
17764;BME280;22245;52.832;13.816;2022-11-09T00:40:09;100855.28;;;13.25;62.14
17764;BME280;22245;52.832;13.816;2022-11-09T00:43:32;100862.50;;;13.24;61.90
17764;BME280;22245;52.832;13.816;2022-11-09T00:46:54;100847.44;;;13.23;62.54
17764;BME280;22245;52.832;13.816;2022-11-09T00:50:16;100849.13;;;13.24;62.58
17764;BME280;22245;52.832;13.816;2022-11-09T00:53:38;100851.94;;;13.23;62.29
17764;BME280;22245;52.832;13.816;2022-11-09T00:57:01;100854.59;;;13.23;62.27
17764;BME280;22245;52.832;13.816;2022-11-09T01:00:23;100853.91;;;13.21;62.35
17764;BME280;22245;52.832;13.816;2022-11-09T01:03:45;100855.75;;;13.20;62.38
17764;BME280;22245;52.832;13.816;2022-11-09T01:07:08;100850.69;;;13.17;62.44
17764;BME280;22245;52.832;13.816;2022-11-09T01:10:30;100839.44;;;13.13;62.24
17764;BME280;22245;52.832;13.816;2022-11-09T01:13:53;100837.47;;;13.15;62.60
17764;BME280;22245;52.832;13.816;2022-11-09T01:17:15;100831.13;;;13.16;62.18
17764;BME280;22245;52.832;13.816;2022-11-09T01:20:39;100830.13;;;13.17;62.58
17764;BME280;22245;52.832;13.816;2022-11-09T01:24:02;100839.84;;;13.18;62.57
17764;BME280;22245;52.832;13.816;2022-11-09T01:27:23;100834.50;;;13.18;62.42
17764;BME280;22245;52.832;13.816;2022-11-09T01:30:47;100831.81;;;13.18;62.62
17764;BME280;22245;52.832;13.816;2022-11-09T01:34:09;100827.44;;;13.17;62.67
17764;BME280;22245;52.832;13.816;2022-11-09T01:37:31;100823.78;;;13.18;61.99
17764;BME280;22245;52.832;13.816;2022-11-09T01:40:54;100826.47;;;13.18;62.25
17764;BME280;22245;52.832;13.816;2022-11-09T01:44:17;100823.78;;;13.18;62.19
17764;BME280;22245;52.832;13.816;2022-11-09T01:47:41;100815.78;;;13.18;62.04
17764;BME280;22245;52.832;13.816;2022-11-09T01:51:07;100825.47;;;13.20;61.80
17764;BME280;22245;52.832;13.816;2022-11-09T01:54:33;100809.59;;;13.18;62.04
17764;BME280;22245;52.832;13.816;2022-11-09T01:58:01;100802.41;;;13.18;61.97
17764;BME280;22245;52.832;13.816;2022-11-09T02:01:24;100797.03;;;13.18;62.11
17764;BME280;22245;52.832;13.816;2022-11-09T02:04:50;100802.41;;;13.18;61.78
17764;BME280;22245;52.832;13.816;2022-11-09T02:08:16;100804.09;;;13.20;61.91
17764;BME280;22245;52.832;13.816;2022-11-09T02:11:39;100807.63;;;13.20;61.59
17764;BME280;22245;52.832;13.816;2022-11-09T02:15:02;100809.13;;;13.23;61.58
17764;BME280;22245;52.832;13.816;2022-11-09T02:18:25;100818.00;;;13.23;61.62
17764;BME280;22245;52.832;13.816;2022-11-09T02:21:49;100810.13;;;13.22;61.43
17764;BME280;22245;52.832;13.816;2022-11-09T02:25:13;100807.44;;;13.22;61.69
17764;BME280;22245;52.832;13.816;2022-11-09T02:28:36;100810.97;;;13.22;61.84
17764;BME280;22245;52.832;13.816;2022-11-09T02:32:01;100804.09;;;13.20;61.61
17764;BME280;22245;52.832;13.816;2022-11-09T02:35:24;100799.88;;;13.17;61.49
17764;BME280;22245;52.832;13.816;2022-11-09T02:38:48;100795.66;;;13.14;61.63
17764;BME280;22245;52.832;13.816;2022-11-09T02:42:11;100789.50;;;13.14;61.24
17764;BME280;22245;52.832;13.816;2022-11-09T02:45:42;100784.28;;;13.12;61.56
17764;BME280;22245;52.832;13.816;2022-11-09T02:49:04;100787.25;;;13.09;61.33
17764;BME280;22245;52.832;13.816;2022-11-09T02:52:28;100789.22;;;13.07;61.36
17764;BME280;22245;52.832;13.816;2022-11-09T02:55:52;100796.53;;;13.05;61.56
17764;BME280;22245;52.832;13.816;2022-11-09T02:59:14;100792.19;;;13.04;61.43
17764;BME280;22245;52.832;13.816;2022-11-09T03:02:36;100782.63;;;13.01;61.21
17764;BME280;22245;52.832;13.816;2022-11-09T03:05:58;100788.13;;;13.00;61.20
17764;BME280;22245;52.832;13.816;2022-11-09T03:09:20;100790.41;;;12.95;61.81
17764;BME280;22245;52.832;13.816;2022-11-09T03:12:44;100799.69;;;12.91;61.84
17764;BME280;22245;52.832;13.816;2022-11-09T03:16:08;100792.22;;;12.84;61.60
17764;BME280;22245;52.832;13.816;2022-11-09T03:19:32;100799.56;;;12.82;62.06
17764;BME280;22245;52.832;13.816;2022-11-09T03:22:56;100807.72;;;12.81;61.67
17764;BME280;22245;52.832;13.816;2022-11-09T03:26:19;100807.88;;;12.79;61.97
17764;BME280;22245;52.832;13.816;2022-11-09T03:29:43;100795.66;;;12.77;62.10
17764;BME280;22245;52.832;13.816;2022-11-09T03:33:05;100799.31;;;12.76;62.08
17764;BME280;22245;52.832;13.816;2022-11-09T03:36:30;100779.03;;;12.73;61.89
17764;BME280;22245;52.832;13.816;2022-11-09T03:39:52;100776.38;;;12.73;62.12
17764;BME280;22245;52.832;13.816;2022-11-09T03:43:14;100772.03;;;12.72;61.94
17764;BME280;22245;52.832;13.816;2022-11-09T03:46:38;100774.69;;;12.72;61.63
17764;BME280;22245;52.832;13.816;2022-11-09T03:50:00;100775.38;;;12.74;61.99
17764;BME280;22245;52.832;13.816;2022-11-09T03:53:21;100770.03;;;12.74;61.70
17764;BME280;22245;52.832;13.816;2022-11-09T03:56:44;100778.06;;;12.74;61.67
17764;BME280;22245;52.832;13.816;2022-11-09T04:00:07;100780.72;;;12.74;62.17
17764;BME280;22245;52.832;13.816;2022-11-09T04:03:34;100778.75;;;12.76;61.74
17764;BME280;22245;52.832;13.816;2022-11-09T04:06:56;100782.28;;;12.77;62.00
17764;BME280;22245;52.832;13.816;2022-11-09T04:10:18;100772.59;;;12.76;61.80
17764;BME280;22245;52.832;13.816;2022-11-09T04:13:40;100774.28;;;12.77;61.54
17764;BME280;22245;52.832;13.816;2022-11-09T04:17:02;100770.44;;;12.79;61.58
17764;BME280;22245;52.832;13.816;2022-11-09T04:20:25;100780.44;;;12.77;61.58
17764;BME280;22245;52.832;13.816;2022-11-09T04:23:47;100798.84;;;12.80;61.61
17764;BME280;22245;52.832;13.816;2022-11-09T04:27:09;100807.28;;;12.85;61.44
17764;BME280;22245;52.832;13.816;2022-11-09T04:30:33;100814.19;;;12.88;61.60
17764;BME280;22245;52.832;13.816;2022-11-09T04:33:56;100815.75;;;12.91;61.33
17764;BME280;22245;52.832;13.816;2022-11-09T04:37:19;100816.56;;;12.91;61.23
17764;BME280;22245;52.832;13.816;2022-11-09T04:40:40;100817.25;;;12.93;61.30
17764;BME280;22245;52.832;13.816;2022-11-09T04:44:02;100811.78;;;12.95;61.06
17764;BME280;22245;52.832;13.816;2022-11-09T04:47:24;100805.16;;;12.99;61.74
17764;BME280;22245;52.832;13.816;2022-11-09T04:50:46;100805.00;;;13.00;61.52
17764;BME280;22245;52.832;13.816;2022-11-09T04:54:09;100795.84;;;13.03;61.61
17764;BME280;22245;52.832;13.816;2022-11-09T04:57:32;100797.38;;;13.06;62.07
17764;BME280;22245;52.832;13.816;2022-11-09T05:00:54;100799.22;;;13.05;62.10
17764;BME280;22245;52.832;13.816;2022-11-09T05:04:22;100790.22;;;13.06;61.63
17764;BME280;22245;52.832;13.816;2022-11-09T05:07:43;100796.25;;;13.08;61.71
17764;BME280;22245;52.832;13.816;2022-11-09T05:11:07;100800.59;;;13.09;61.95
17764;BME280;22245;52.832;13.816;2022-11-09T05:14:28;100801.31;;;13.11;62.18
17764;BME280;22245;52.832;13.816;2022-11-09T05:17:50;100797.63;;;13.12;62.20
17764;BME280;22245;52.832;13.816;2022-11-09T05:21:12;100804.66;;;13.13;62.20
17764;BME280;22245;52.832;13.816;2022-11-09T05:24:34;100805.38;;;13.15;62.10
17764;BME280;22245;52.832;13.816;2022-11-09T05:27:57;100803.56;;;13.16;62.51
17764;BME280;22245;52.832;13.816;2022-11-09T05:31:19;100804.38;;;13.16;62.37
17764;BME280;22245;52.832;13.816;2022-11-09T05:34:41;100800.72;;;13.17;62.13
17764;BME280;22245;52.832;13.816;2022-11-09T05:38:03;100806.75;;;13.20;61.95
17764;BME280;22245;52.832;13.816;2022-11-09T05:41:25;100814.09;;;13.17;62.34
17764;BME280;22245;52.832;13.816;2022-11-09T05:44:49;100814.09;;;13.17;62.34
17764;BME280;22245;52.832;13.816;2022-11-09T05:48:11;100807.75;;;13.18;63.01
17764;BME280;22245;52.832;13.816;2022-11-09T05:51:33;100823.78;;;13.18;63.23
17764;BME280;22245;52.832;13.816;2022-11-09T05:54:55;100814.78;;;13.20;62.90
17764;BME280;22245;52.832;13.816;2022-11-09T05:58:17;100823.78;;;13.18;63.10
17764;BME280;22245;52.832;13.816;2022-11-09T06:01:40;100817.63;;;13.18;63.52
17764;BME280;22245;52.832;13.816;2022-11-09T06:05:02;100817.44;;;13.20;63.50
17764;BME280;22245;52.832;13.816;2022-11-09T06:08:24;100826.34;;;13.20;63.84
17764;BME280;22245;52.832;13.816;2022-11-09T06:11:45;100829.13;;;13.18;64.24
17764;BME280;22245;52.832;13.816;2022-11-09T06:15:10;100830.69;;;13.21;63.82
17764;BME280;22245;52.832;13.816;2022-11-09T06:18:34;100824.47;;;13.21;63.82
17764;BME280;22245;52.832;13.816;2022-11-09T06:21:57;100826.34;;;13.20;64.21
17764;BME280;22245;52.832;13.816;2022-11-09T06:25:18;100832.81;;;13.17;64.22
17764;BME280;22245;52.832;13.816;2022-11-09T06:28:42;100844.19;;;13.20;64.29
17764;BME280;22245;52.832;13.816;2022-11-09T06:32:04;100835.47;;;13.17;64.21
17764;BME280;22245;52.832;13.816;2022-11-09T06:35:28;100837.31;;;13.17;64.30
17764;BME280;22245;52.832;13.816;2022-11-09T06:38:50;100840.00;;;13.17;64.83
17764;BME280;22245;52.832;13.816;2022-11-09T06:42:12;100840.00;;;13.17;64.83
17764;BME280;22245;52.832;13.816;2022-11-09T06:45:34;100835.47;;;13.17;64.97
17764;BME280;22245;52.832;13.816;2022-11-09T06:48:56;100844.19;;;13.20;65.36
17764;BME280;22245;52.832;13.816;2022-11-09T06:52:19;100838.84;;;13.20;65.38
17764;BME280;22245;52.832;13.816;2022-11-09T06:55:42;100844.88;;;13.22;65.80
17764;BME280;22245;52.832;13.816;2022-11-09T06:59:10;100848.25;;;13.24;66.20
17764;BME280;22245;52.832;13.816;2022-11-09T07:02:32;100853.59;;;13.24;66.11
17764;BME280;22245;52.832;13.816;2022-11-09T07:05:55;100857.00;;;13.26;65.97
17764;BME280;22245;52.832;13.816;2022-11-09T07:09:18;100856.16;;;13.25;65.86
17764;BME280;22245;52.832;13.816;2022-11-09T07:12:40;100848.97;;;13.26;66.46
17764;BME280;22245;52.832;13.816;2022-11-09T07:16:02;100854.16;;;13.27;66.79
17764;BME280;22245;52.832;13.816;2022-11-09T07:19:24;100857.72;;;13.28;66.90
17764;BME280;22245;52.832;13.816;2022-11-09T07:22:48;100855.72;;;13.30;67.14
17764;BME280;22245;52.832;13.816;2022-11-09T07:26:11;100855.03;;;13.28;66.73
17764;BME280;22245;52.832;13.816;2022-11-09T07:29:33;100865.84;;;13.26;67.66
17764;BME280;22245;52.832;13.816;2022-11-09T07:32:55;100859.69;;;13.26;68.25
17764;BME280;22245;52.832;13.816;2022-11-09T07:36:39;100867.97;;;13.23;68.23
17764;BME280;22245;52.832;13.816;2022-11-09T07:40:01;100859.81;;;13.24;69.31
17764;BME280;22245;52.832;13.816;2022-11-09T07:43:25;100858.13;;;13.23;69.31
17764;BME280;22245;52.832;13.816;2022-11-09T07:46:49;100858.97;;;13.24;70.42
17764;BME280;22245;52.832;13.816;2022-11-09T07:50:11;100859.81;;;13.24;70.65
17764;BME280;22245;52.832;13.816;2022-11-09T07:53:34;100859.94;;;13.23;70.86
17764;BME280;22245;52.832;13.816;2022-11-09T07:56:55;100848.56;;;13.21;71.11
17764;BME280;22245;52.832;13.816;2022-11-09T08:00:19;100844.34;;;13.18;71.56
17764;BME280;22245;52.832;13.816;2022-11-09T08:03:43;100833.09;;;13.14;71.87
17764;BME280;22245;52.832;13.816;2022-11-09T08:07:05;100825.25;;;13.13;72.48
17764;BME280;22245;52.832;13.816;2022-11-09T08:10:28;100812.69;;;13.13;72.86
17764;BME280;22245;52.832;13.816;2022-11-09T08:13:50;100828.03;;;13.11;73.06
17764;BME280;22245;52.832;13.816;2022-11-09T08:17:14;100873.22;;;13.14;73.79
17764;BME280;22245;52.832;13.816;2022-11-09T08:20:36;100874.19;;;13.13;74.66
17764;BME280;22245;52.832;13.816;2022-11-09T08:23:58;100877.84;;;13.12;74.84
17764;BME280;22245;52.832;13.816;2022-11-09T08:27:20;100877.31;;;13.09;75.33
17764;BME280;22245;52.832;13.816;2022-11-09T08:30:43;100886.34;;;13.08;75.18
17764;BME280;22245;52.832;13.816;2022-11-09T08:34:09;100859.03;;;13.04;75.30
17764;BME280;22245;52.832;13.816;2022-11-09T08:37:32;100859.31;;;13.01;75.42
17764;BME280;22245;52.832;13.816;2022-11-09T08:40:58;100862.13;;;12.99;75.35
17764;BME280;22245;52.832;13.816;2022-11-09T08:44:20;100865.94;;;12.97;74.95
17764;BME280;22245;52.832;13.816;2022-11-09T08:47:42;100849.22;;;12.95;75.51
17764;BME280;22245;52.832;13.816;2022-11-09T08:51:06;100858.22;;;12.94;75.06
17764;BME280;22245;52.832;13.816;2022-11-09T08:54:27;100859.19;;;12.93;75.50
17764;BME280;22245;52.832;13.816;2022-11-09T08:57:52;100862.56;;;12.95;75.30
17764;BME280;22245;52.832;13.816;2022-11-09T09:01:14;100862.69;;;12.93;74.97
17764;BME280;22245;52.832;13.816;2022-11-09T09:04:37;100861.00;;;12.92;75.36
17764;BME280;22245;52.832;13.816;2022-11-09T09:08:00;100856.81;;;12.90;75.00
17764;BME280;22245;52.832;13.816;2022-11-09T09:11:23;100885.25;;;12.91;75.46
17764;BME280;22245;52.832;13.816;2022-11-09T09:14:45;100908.44;;;12.90;75.13
17764;BME280;22245;52.832;13.816;2022-11-09T09:18:07;100904.78;;;12.91;74.99
17764;BME280;22245;52.832;13.816;2022-11-09T09:21:29;100905.47;;;12.93;75.14
17764;BME280;22245;52.832;13.816;2022-11-09T09:24:52;100909.69;;;12.96;75.01
17764;BME280;22245;52.832;13.816;2022-11-09T09:28:14;100909.41;;;12.99;74.94
17764;BME280;22245;52.832;13.816;2022-11-09T09:31:36;100902.09;;;13.01;75.00
17764;BME280;22245;52.832;13.816;2022-11-09T09:34:58;100896.47;;;13.04;74.67
17764;BME280;22245;52.832;13.816;2022-11-09T09:38:20;100897.16;;;13.06;74.88
17764;BME280;22245;52.832;13.816;2022-11-09T09:41:50;100905.06;;;13.08;74.96
17764;BME280;22245;52.832;13.816;2022-11-09T09:45:17;100902.22;;;13.09;74.86
17764;BME280;22245;52.832;13.816;2022-11-09T09:48:45;100905.59;;;13.11;75.33
17764;BME280;22245;52.832;13.816;2022-11-09T09:52:15;100901.78;;;13.14;75.05
17764;BME280;22245;52.832;13.816;2022-11-09T09:55:41;100914.72;;;13.18;75.23
17764;BME280;22245;52.832;13.816;2022-11-09T09:59:11;100911.06;;;13.20;75.50
17764;BME280;22245;52.832;13.816;2022-11-09T10:02:36;100900.06;;;13.23;75.47
17764;BME280;22245;52.832;13.816;2022-11-09T10:06:04;100914.00;;;13.26;75.81
17764;BME280;22245;52.832;13.816;2022-11-09T10:09:45;100922.72;;;13.28;75.92
17764;BME280;22245;52.832;13.816;2022-11-09T10:13:36;100919.75;;;13.31;75.94
17764;BME280;22245;52.832;13.816;2022-11-09T10:17:07;100922.84;;;13.37;75.46
17764;BME280;22245;52.832;13.816;2022-11-09T10:20:48;100927.50;;;13.44;75.97
17764;BME280;22245;52.832;13.816;2022-11-09T10:24:21;100927.06;;;13.49;75.38
17764;BME280;22245;52.832;13.816;2022-11-09T10:27:52;100928.47;;;13.53;74.97
17764;BME280;22245;52.832;13.816;2022-11-09T10:31:18;100924.50;;;13.57;75.60
17764;BME280;22245;52.832;13.816;2022-11-09T10:34:47;100942.78;;;13.62;75.18
17764;BME280;22245;52.832;13.816;2022-11-09T10:38:16;100936.44;;;13.63;75.55
17764;BME280;22245;52.832;13.816;2022-11-09T10:42:00;100928.16;;;13.66;75.12
17764;BME280;22245;52.832;13.816;2022-11-09T10:45:43;100918.13;;;13.68;74.93
17764;BME280;22245;52.832;13.816;2022-11-09T10:49:23;100903.75;;;13.69;74.70
17764;BME280;22245;52.832;13.816;2022-11-09T10:53:12;100901.78;;;13.71;74.54
17764;BME280;22245;52.832;13.816;2022-11-09T10:57:00;100914.16;;;13.72;74.74
17764;BME280;22245;52.832;13.816;2022-11-09T11:00:57;100910.94;;;13.69;74.70
17764;BME280;22245;52.832;13.816;2022-11-09T11:04:38;100908.13;;;13.70;74.45
17764;BME280;22245;52.832;13.816;2022-11-09T11:08:23;100899.09;;;13.71;74.40
17764;BME280;22245;52.832;13.816;2022-11-09T11:12:14;100892.59;;;13.74;74.70
17764;BME280;22245;52.832;13.816;2022-11-09T11:15:55;100895.84;;;13.78;74.38
17764;BME280;22245;52.832;13.816;2022-11-09T11:19:37;100911.44;;;13.82;74.65
17764;BME280;22245;52.832;13.816;2022-11-09T11:23:22;100899.28;;;13.88;74.37
17764;BME280;22245;52.832;13.816;2022-11-09T11:27:05;100891.94;;;13.90;74.41
17764;BME280;22245;52.832;13.816;2022-11-09T11:30:50;100886.00;;;13.96;74.38
17764;BME280;22245;52.832;13.816;2022-11-09T11:34:32;100891.03;;;13.99;73.65
17764;BME280;22245;52.832;13.816;2022-11-09T11:38:39;100887.09;;;14.03;73.67
17764;BME280;22245;52.832;13.816;2022-11-09T11:46:30;100874.47;;;14.14;73.59
17764;BME280;22245;52.832;13.816;2022-11-09T11:50:29;100874.19;;;14.17;73.67
17764;BME280;22245;52.832;13.816;2022-11-09T11:54:20;100868.22;;;14.23;73.85
17764;BME280;22245;52.832;13.816;2022-11-09T11:58:17;100871.28;;;14.28;73.73
17764;BME280;22245;52.832;13.816;2022-11-09T12:02:23;100868.16;;;14.33;73.00
17764;BME280;22245;52.832;13.816;2022-11-09T12:06:37;100879.09;;;14.40;73.05
17764;BME280;22245;52.832;13.816;2022-11-09T12:10:31;100871.59;;;14.43;72.92
17764;BME280;22245;52.832;13.816;2022-11-09T12:14:26;100858.34;;;14.42;72.50
17764;BME280;22245;52.832;13.816;2022-11-09T12:18:17;100867.78;;;14.46;72.46
17764;BME280;22245;52.832;13.816;2022-11-09T12:22:05;100860.25;;;14.50;72.26
17764;BME280;22245;52.832;13.816;2022-11-09T12:25:55;100855.13;;;14.56;72.39
17764;BME280;22245;52.832;13.816;2022-11-09T12:30:03;100855.66;;;14.60;71.98
17764;BME280;22245;52.832;13.816;2022-11-09T12:33:55;100842.63;;;14.65;72.06
17764;BME280;22245;52.832;13.816;2022-11-09T12:37:44;100845.72;;;14.70;72.14
17764;BME280;22245;52.832;13.816;2022-11-09T12:41:32;100837.19;;;14.75;72.11
17764;BME280;22245;52.832;13.816;2022-11-09T12:45:20;100831.53;;;14.78;72.00
17764;BME280;22245;52.832;13.816;2022-11-09T12:49:04;100841.28;;;14.79;72.16
17764;BME280;22245;52.832;13.816;2022-11-09T12:52:47;100840.78;;;14.84;71.46
17764;BME280;22245;52.832;13.816;2022-11-09T12:56:34;100843.16;;;14.87;71.21
17764;BME280;22245;52.832;13.816;2022-11-09T13:00:48;100851.72;;;14.90;72.06
17764;BME280;22245;52.832;13.816;2022-11-09T13:04:29;100858.47;;;14.95;71.27
17764;BME280;22245;52.832;13.816;2022-11-09T13:08:16;100856.47;;;14.97;71.41
17764;BME280;22245;52.832;13.816;2022-11-09T13:12:15;100860.69;;;14.99;71.62
17764;BME280;22245;52.832;13.816;2022-11-09T13:16:11;100870.22;;;15.02;71.73
17764;BME280;22245;52.832;13.816;2022-11-09T13:20:39;100867.56;;;15.02;71.02
17764;BME280;22245;52.832;13.816;2022-11-09T13:24:51;100871.59;;;15.06;71.12
17764;BME280;22245;52.832;13.816;2022-11-09T13:29:07;100861.88;;;15.05;70.90
17764;BME280;22245;52.832;13.816;2022-11-09T13:37:35;100857.25;;;15.15;70.70
17764;BME280;22245;52.832;13.816;2022-11-09T13:41:43;100855.09;;;15.19;71.08
17764;BME280;22245;52.832;13.816;2022-11-09T13:45:33;100858.31;;;15.23;70.62
17764;BME280;22245;52.832;13.816;2022-11-09T13:49:39;100865.34;;;15.24;70.80
17764;BME280;22245;52.832;13.816;2022-11-09T13:53:29;100866.03;;;15.26;70.18
17764;BME280;22245;52.832;13.816;2022-11-09T13:57:10;100866.03;;;15.26;70.78
17764;BME280;22245;52.832;13.816;2022-11-09T14:00:51;100867.72;;;15.27;70.60
17764;BME280;22245;52.832;13.816;2022-11-09T14:04:36;100865.84;;;15.27;70.41
17764;BME280;22245;52.832;13.816;2022-11-09T14:08:28;100860.50;;;15.27;70.42
17764;BME280;22245;52.832;13.816;2022-11-09T14:12:26;100866.53;;;15.29;70.41
17764;BME280;22245;52.832;13.816;2022-11-09T14:16:19;100869.75;;;15.33;70.67
17764;BME280;22245;52.832;13.816;2022-11-09T14:20:14;100858.03;;;15.34;70.29
17764;BME280;22245;52.832;13.816;2022-11-09T14:24:01;100872.44;;;15.33;69.81
17764;BME280;22245;52.832;13.816;2022-11-09T14:27:46;100850.13;;;15.32;70.01
17764;BME280;22245;52.832;13.816;2022-11-09T14:31:30;100862.03;;;15.30;69.77
17764;BME280;22245;52.832;13.816;2022-11-09T14:35:23;100868.41;;;15.29;69.85
17764;BME280;22245;52.832;13.816;2022-11-09T14:39:11;100868.88;;;15.24;70.03
17764;BME280;22245;52.832;13.816;2022-11-09T14:43:00;100876.56;;;15.19;70.42
17764;BME280;22245;52.832;13.816;2022-11-09T14:46:42;100877.72;;;15.16;70.49
17764;BME280;22245;52.832;13.816;2022-11-09T14:50:25;100881.69;;;15.12;70.22
17764;BME280;22245;52.832;13.816;2022-11-09T14:54:10;100891.06;;;15.08;70.67
17764;BME280;22245;52.832;13.816;2022-11-09T14:57:54;100888.88;;;15.03;71.10
17764;BME280;22245;52.832;13.816;2022-11-09T15:01:35;100894.56;;;15.00;71.12
17764;BME280;22245;52.832;13.816;2022-11-09T15:05:30;100894.00;;;14.97;70.96
17764;BME280;22245;52.832;13.816;2022-11-09T15:09:14;100895.31;;;14.93;70.96
17764;BME280;22245;52.832;13.816;2022-11-09T15:12:58;100911.72;;;14.89;70.84
17764;BME280;22245;52.832;13.816;2022-11-09T15:16:40;100900.63;;;14.84;71.58
17764;BME280;22245;52.832;13.816;2022-11-09T15:20:24;100906.63;;;14.78;71.71
17764;BME280;22245;52.832;13.816;2022-11-09T15:24:14;100902.69;;;14.72;71.91
17764;BME280;22245;52.832;13.816;2022-11-09T15:28:16;100893.97;;;14.70;72.36
17764;BME280;22245;52.832;13.816;2022-11-09T15:32:11;100905.28;;;14.64;72.35
17764;BME280;22245;52.832;13.816;2022-11-09T15:35:54;100910.28;;;14.59;72.33
17764;BME280;22245;52.832;13.816;2022-11-09T15:39:36;100908.72;;;14.56;72.75
17764;BME280;22245;52.832;13.816;2022-11-09T15:43:17;100909.34;;;14.50;72.86
17764;BME280;22245;52.832;13.816;2022-11-09T15:46:58;100912.31;;;14.47;72.29
17764;BME280;22245;52.832;13.816;2022-11-09T15:50:39;100913.63;;;14.43;73.13
17764;BME280;22245;52.832;13.816;2022-11-09T15:54:21;100905.19;;;14.38;72.73
17764;BME280;22245;52.832;13.816;2022-11-09T15:58:03;100903.81;;;14.33;72.74
17764;BME280;22245;52.832;13.816;2022-11-09T16:01:44;100909.47;;;14.30;73.07
17764;BME280;22245;52.832;13.816;2022-11-09T16:05:24;100908.09;;;14.26;73.29
17764;BME280;22245;52.832;13.816;2022-11-09T16:09:06;100902.22;;;14.23;73.45
17764;BME280;22245;52.832;13.816;2022-11-09T16:12:46;100906.16;;;14.18;73.77
17764;BME280;22245;52.832;13.816;2022-11-09T16:16:28;100922.53;;;14.15;73.31
17764;BME280;22245;52.832;13.816;2022-11-09T16:20:10;100931.84;;;14.11;73.98
17764;BME280;22245;52.832;13.816;2022-11-09T16:23:50;100927.97;;;14.06;74.27
17764;BME280;22245;52.832;13.816;2022-11-09T16:27:37;100932.75;;;14.02;74.64
17764;BME280;22245;52.832;13.816;2022-11-09T16:31:35;100939.25;;;13.99;74.56
17764;BME280;22245;52.832;13.816;2022-11-09T16:35:32;100930.53;;;13.97;75.19
17764;BME280;22245;52.832;13.816;2022-11-09T16:39:12;100940.53;;;13.95;75.19
17764;BME280;22245;52.832;13.816;2022-11-09T16:42:55;100938.16;;;13.92;75.55
17764;BME280;22245;52.832;13.816;2022-11-09T16:46:41;100937.47;;;13.90;74.97
17764;BME280;22245;52.832;13.816;2022-11-09T16:50:22;100940.44;;;13.87;75.26
17764;BME280;22245;52.832;13.816;2022-11-09T16:54:03;100941.31;;;13.87;75.87
17764;BME280;22245;52.832;13.816;2022-11-09T16:57:43;100935.38;;;13.84;75.89
17764;BME280;22245;52.832;13.816;2022-11-09T17:01:25;100937.22;;;13.83;75.57
17764;BME280;22245;52.832;13.816;2022-11-09T17:05:08;100941.88;;;13.81;75.75
17764;BME280;22245;52.832;13.816;2022-11-09T17:09:11;100958.09;;;13.80;75.60
17764;BME280;22245;52.832;13.816;2022-11-09T17:17:46;101019.69;;;13.70;76.50
17764;BME280;22245;52.832;13.816;2022-11-09T17:21:32;101011.97;;;13.57;77.38
17764;BME280;22245;52.832;13.816;2022-11-09T17:25:20;101005.63;;;13.58;77.21
17764;BME280;22245;52.832;13.816;2022-11-09T17:29:00;100992.25;;;13.58;77.51
17764;BME280;22245;52.832;13.816;2022-11-09T17:32:41;100991.94;;;13.61;76.94
17764;BME280;22245;52.832;13.816;2022-11-09T17:36:22;100990.69;;;13.65;77.05
17764;BME280;22245;52.832;13.816;2022-11-09T17:40:23;100986.56;;;13.71;77.14
17764;BME280;22245;52.832;13.816;2022-11-09T17:44:04;100988.81;;;13.75;76.58
17764;BME280;22245;52.832;13.816;2022-11-09T17:47:45;100997.38;;;13.79;76.40
17764;BME280;22245;52.832;13.816;2022-11-09T17:51:25;100998.38;;;13.78;76.77
17764;BME280;22245;52.832;13.816;2022-11-09T17:55:06;100992.03;;;13.79;76.30
17764;BME280;22245;52.832;13.816;2022-11-09T17:58:48;101003.59;;;13.80;76.76
17764;BME280;22245;52.832;13.816;2022-11-09T18:02:28;101001.63;;;13.82;76.48
17764;BME280;22245;52.832;13.816;2022-11-09T18:06:10;101007.97;;;13.81;76.49
17764;BME280;22245;52.832;13.816;2022-11-09T18:09:51;101035.72;;;13.80;76.35
17764;BME280;22245;52.832;13.816;2022-11-09T18:13:32;101033.19;;;13.78;76.67
17764;BME280;22245;52.832;13.816;2022-11-09T18:17:14;101032.34;;;13.78;76.69
17764;BME280;22245;52.832;13.816;2022-11-09T18:20:54;101019.78;;;13.78;76.68
17764;BME280;22245;52.832;13.816;2022-11-09T18:24:35;101027.00;;;13.78;76.85
17764;BME280;22245;52.832;13.816;2022-11-09T18:28:15;101034.03;;;13.79;76.25
17764;BME280;22245;52.832;13.816;2022-11-09T18:31:56;101023.16;;;13.80;76.09
17764;BME280;22245;52.832;13.816;2022-11-09T18:35:38;101024.03;;;13.81;76.11